Time;durP1;ratioP1;P1;durP2;ratioP2;P2;SDS_P1;SDS_P2;PMS_P1;PMS_P2;Temp;Humidity;BMP_temperature;BMP_pressure;BME280_temperature;BME280_humidity;BME280_pressure;Samples;Min_cycle;Max_cycle;Signal;HPM_P1;HPM_P2
2023/04/22 00:02:05;;;;;;;12.60;8.57;;;12.20;99.90;;;;;;5053042;28;20025;-82
2023/04/22 00:04:31;;;;;;;28.10;9.98;;;12.30;99.90;;;;;;5049889;28;20525;-83
2023/04/22 00:06:56;;;;;;;13.73;7.45;;;12.20;99.90;;;;;;5042792;28;20032;-83
2023/04/22 00:09:22;;;;;;;12.65;7.68;;;12.20;99.90;;;;;;5044056;28;20021;-81
2023/04/22 00:11:48;;;;;;;19.50;7.50;;;12.20;99.90;;;;;;5045546;28;22243;-83
2023/04/22 00:14:14;;;;;;;15.02;7.00;;;12.20;99.90;;;;;;5038752;28;20032;-82
2023/04/22 00:16:39;;;;;;;24.35;7.85;;;12.20;99.90;;;;;;5046242;28;20021;-84
2023/04/22 00:19:05;;;;;;;17.00;7.90;;;12.20;99.90;;;;;;5047457;28;20048;-83
2023/04/22 00:21:31;;;;;;;17.05;7.95;;;12.20;99.90;;;;;;5045010;28;20060;-83
2023/04/22 00:23:57;;;;;;;13.70;6.97;;;12.20;99.90;;;;;;5050033;28;20389;-83
2023/04/22 00:26:23;;;;;;;14.93;7.80;;;12.20;99.90;;;;;;5044705;28;20087;-82
2023/04/22 00:28:49;;;;;;;18.50;7.78;;;12.20;99.90;;;;;;5046293;28;20136;-82
2023/04/22 00:31:17;;;;;;;26.75;7.63;;;12.20;99.90;;;;;;5041347;28;20036;-90
2023/04/22 00:33:43;;;;;;;19.77;7.30;;;12.10;99.90;;;;;;5043882;28;20057;-83
2023/04/22 00:36:08;;;;;;;19.83;7.63;;;12.10;99.90;;;;;;5046566;28;20045;-82
2023/04/22 00:38:34;;;;;;;18.77;7.53;;;12.10;99.90;;;;;;5046334;28;20643;-83
2023/04/22 00:41:00;;;;;;;14.48;7.60;;;12.10;99.90;;;;;;5049141;28;20076;-83
2023/04/22 00:43:25;;;;;;;22.23;7.35;;;12.10;99.90;;;;;;5054737;28;20500;-84
2023/04/22 00:45:52;;;;;;;18.73;7.85;;;12.00;99.90;;;;;;5052099;28;20047;-82
2023/04/22 00:48:18;;;;;;;17.90;7.53;;;12.00;99.90;;;;;;5047062;28;20068;-85
2023/04/22 00:50:44;;;;;;;16.05;7.22;;;12.00;99.90;;;;;;5042556;28;20033;-83
2023/04/22 00:53:10;;;;;;;24.15;7.97;;;11.90;99.90;;;;;;5049254;28;20036;-83
2023/04/22 00:55:36;;;;;;;13.38;6.85;;;11.90;99.90;;;;;;5050867;28;20080;-82
2023/04/22 00:58:03;;;;;;;16.45;6.63;;;11.90;99.90;;;;;;5051077;28;20469;-82
2023/04/22 01:00:29;;;;;;;13.73;7.10;;;11.80;99.90;;;;;;5040546;28;20037;-83
2023/04/22 01:02:55;;;;;;;22.38;8.63;;;11.80;99.90;;;;;;5048929;28;20429;-83
2023/04/22 01:05:23;;;;;;;14.10;7.22;;;11.80;99.90;;;;;;5045623;28;20021;-82
2023/04/22 01:07:49;;;;;;;18.13;7.82;;;11.80;99.90;;;;;;5051018;28;20033;-86
2023/04/22 01:10:19;;;;;;;18.67;8.05;;;11.80;99.90;;;;;;5053421;28;20482;-89
2023/04/22 01:12:45;;;;;;;24.00;7.32;;;11.80;99.90;;;;;;5051660;28;20115;-84
2023/04/22 01:15:10;;;;;;;21.85;7.57;;;11.80;99.90;;;;;;5046753;28;20121;-82
2023/04/22 01:17:36;;;;;;;14.52;6.63;;;11.80;99.90;;;;;;5048403;28;20021;-82
2023/04/22 01:20:11;;;;;;;22.20;7.95;;;11.80;99.90;;;;;;5051963;28;20044;-84
2023/04/22 01:22:41;;;;;;;14.63;7.07;;;11.80;99.90;;;;;;5048004;28;20096;-82
2023/04/22 01:25:10;;;;;;;18.38;7.15;;;11.80;99.90;;;;;;5047187;28;20020;-83
2023/04/22 01:27:36;;;;;;;17.33;7.82;;;11.80;99.90;;;;;;5048853;28;20048;-83
2023/04/22 01:30:03;;;;;;;13.00;6.55;;;11.80;99.90;;;;;;5046136;28;20113;-84
2023/04/22 01:32:29;;;;;;;15.35;6.75;;;11.80;99.90;;;;;;5045533;28;20640;-83
2023/04/22 01:34:55;;;;;;;19.88;7.80;;;11.70;99.90;;;;;;5049882;28;20021;-82
2023/04/22 01:37:23;;;;;;;11.45;6.60;;;11.70;99.90;;;;;;5048145;28;20190;-83
2023/04/22 01:39:49;;;;;;;11.05;6.53;;;11.80;99.90;;;;;;5044860;28;20063;-84
2023/04/22 01:42:16;;;;;;;14.77;6.50;;;11.80;99.90;;;;;;5048476;28;20052;-87
2023/04/22 01:44:41;;;;;;;15.70;7.82;;;11.70;99.90;;;;;;5049525;28;20267;-84
2023/04/22 01:47:07;;;;;;;14.27;6.07;;;11.70;99.90;;;;;;5057013;28;20029;-83
2023/04/22 01:49:35;;;;;;;19.90;7.60;;;11.70;99.90;;;;;;5045215;28;20047;-90
2023/04/22 01:52:01;;;;;;;19.00;7.13;;;11.70;99.90;;;;;;5045320;28;20060;-82
2023/04/22 01:54:27;;;;;;;17.83;7.40;;;11.60;99.90;;;;;;5056650;28;20064;-85
2023/04/22 01:56:53;;;;;;;15.60;7.55;;;11.60;99.90;;;;;;5052088;28;20071;-82
2023/04/22 01:59:20;;;;;;;18.25;7.22;;;11.60;99.90;;;;;;5048404;28;20021;-84
2023/04/22 02:01:46;;;;;;;20.67;7.30;;;11.50;99.90;;;;;;5049875;28;20025;-83
2023/04/22 02:04:12;;;;;;;16.90;7.03;;;11.50;99.90;;;;;;5047791;28;20031;-85
2023/04/22 02:06:37;;;;;;;18.17;8.30;;;11.50;99.90;;;;;;5052955;28;20025;-83
2023/04/22 02:09:03;;;;;;;17.63;8.68;;;11.40;99.90;;;;;;5049847;28;20108;-83
2023/04/22 02:11:29;;;;;;;16.33;8.38;;;11.40;99.90;;;;;;5051096;28;20071;-83
2023/04/22 02:13:55;;;;;;;17.98;7.45;;;11.40;99.90;;;;;;5047169;28;20025;-83
2023/04/22 02:16:20;;;;;;;15.80;8.02;;;11.40;99.90;;;;;;5048172;28;20315;-84
2023/04/22 02:18:46;;;;;;;15.20;7.30;;;11.40;99.90;;;;;;5049265;28;20036;-86
2023/04/22 02:21:12;;;;;;;14.50;7.10;;;11.40;99.90;;;;;;5045170;28;20043;-83
2023/04/22 02:23:38;;;;;;;16.10;7.72;;;11.30;99.90;;;;;;5046357;28;20021;-83
2023/04/22 02:26:04;;;;;;;22.40;8.02;;;11.30;99.90;;;;;;5052450;28;20060;-83
2023/04/22 02:28:30;;;;;;;12.77;7.38;;;11.30;99.90;;;;;;5047468;28;20055;-83
2023/04/22 02:30:56;;;;;;;17.73;6.82;;;11.30;99.90;;;;;;5046957;28;20043;-83
2023/04/22 02:33:22;;;;;;;21.63;6.45;;;11.30;99.90;;;;;;5054932;28;20544;-84
2023/04/22 02:35:48;;;;;;;19.00;7.63;;;11.40;99.90;;;;;;5055487;28;20029;-84
2023/04/22 02:38:13;;;;;;;14.02;6.47;;;11.40;99.90;;;;;;5045696;28;20526;-83
2023/04/22 02:40:39;;;;;;;15.98;5.90;;;11.40;99.90;;;;;;5046027;28;20044;-85
2023/04/22 02:43:05;;;;;;;13.90;6.22;;;11.50;99.90;;;;;;5045800;28;20107;-83
2023/04/22 02:45:30;;;;;;;18.30;6.75;;;11.50;99.90;;;;;;5048868;28;20517;-85
2023/04/22 02:47:56;;;;;;;16.65;6.80;;;11.50;99.90;;;;;;5037281;28;20057;-85
2023/04/22 02:50:22;;;;;;;16.50;6.07;;;11.60;99.90;;;;;;5055942;28;20120;-83
2023/04/22 02:52:47;;;;;;;19.13;6.30;;;11.60;99.90;;;;;;5044972;28;20025;-84
2023/04/22 02:55:13;;;;;;;24.88;7.15;;;11.60;99.90;;;;;;5047687;28;20081;-86
2023/04/22 02:57:39;;;;;;;16.20;6.63;;;11.70;99.90;;;;;;5037912;28;20021;-82
2023/04/22 03:00:06;;;;;;;13.02;6.10;;;11.70;99.90;;;;;;5044339;28;20054;-85
2023/04/22 03:02:32;;;;;;;13.35;6.10;;;11.70;99.90;;;;;;5042648;28;20029;-82
2023/04/22 03:04:59;;;;;;;14.68;6.25;;;11.80;99.90;;;;;;5054660;28;20592;-84
2023/04/22 03:07:25;;;;;;;21.38;7.13;;;11.80;99.90;;;;;;5046100;28;20090;-82
2023/04/22 03:09:51;;;;;;;23.38;6.65;;;11.80;99.90;;;;;;5049667;28;20052;-83
2023/04/22 03:12:16;;;;;;;21.15;6.90;;;11.80;99.90;;;;;;5045660;28;20053;-82
2023/04/22 03:14:43;;;;;;;16.85;6.53;;;11.90;99.90;;;;;;5046675;28;20024;-91
2023/04/22 03:17:08;;;;;;;9.88;5.53;;;11.80;99.90;;;;;;5046200;28;20466;-83
2023/04/22 03:19:34;;;;;;;17.23;6.32;;;11.80;99.90;;;;;;5046894;28;20247;-84
2023/04/22 03:21:59;;;;;;;16.33;6.65;;;11.80;99.90;;;;;;5046653;28;20024;-83
2023/04/22 03:24:25;;;;;;;17.98;6.72;;;11.80;99.90;;;;;;5050055;28;20021;-82
2023/04/22 03:26:51;;;;;;;19.55;7.07;;;11.80;99.90;;;;;;5047506;28;20486;-85
2023/04/22 03:29:16;;;;;;;17.90;6.53;;;11.70;99.90;;;;;;5045913;28;20474;-86
2023/04/22 03:31:42;;;;;;;16.50;6.85;;;11.80;99.90;;;;;;5041160;28;20359;-83
2023/04/22 03:34:07;;;;;;;18.40;6.03;;;11.80;99.90;;;;;;5054899;28;20025;-83
2023/04/22 03:36:33;;;;;;;16.15;6.43;;;11.80;99.90;;;;;;5035395;28;20083;-83
2023/04/22 03:38:59;;;;;;;21.45;7.03;;;11.80;99.90;;;;;;5038441;28;20108;-83
2023/04/22 03:41:25;;;;;;;18.05;6.60;;;11.80;99.90;;;;;;5032634;28;20548;-83
2023/04/22 03:43:51;;;;;;;18.80;6.65;;;11.70;99.90;;;;;;5047610;28;20018;-82
2023/04/22 03:46:17;;;;;;;16.20;6.65;;;11.70;99.90;;;;;;5040313;28;20143;-85
2023/04/22 03:48:43;;;;;;;31.30;6.53;;;11.70;99.90;;;;;;5046058;28;20080;-90
2023/04/22 03:51:08;;;;;;;23.05;6.63;;;11.70;99.90;;;;;;5047078;28;20070;-83
2023/04/22 03:53:34;;;;;;;16.65;6.45;;;11.70;99.90;;;;;;5040954;28;20029;-84
2023/04/22 03:55:59;;;;;;;14.85;6.38;;;11.70;99.90;;;;;;5047016;28;20056;-83
2023/04/22 03:58:26;;;;;;;17.50;5.97;;;11.70;99.90;;;;;;5046555;28;20024;-85
2023/04/22 04:00:51;;;;;;;21.48;6.10;;;11.70;99.90;;;;;;5050635;28;20516;-84
2023/04/22 04:03:17;;;;;;;24.98;6.13;;;11.70;99.90;;;;;;5040307;28;20209;-85
2023/04/22 04:05:44;;;;;;;16.48;6.55;;;11.70;99.90;;;;;;5050682;28;20500;-90
2023/04/22 04:08:11;;;;;;;17.65;6.50;;;11.70;99.90;;;;;;5031652;28;20028;-85
2023/04/22 04:10:36;;;;;;;13.32;6.20;;;11.70;99.90;;;;;;5041934;28;20013;-83
2023/04/22 04:13:02;;;;;;;14.48;5.07;;;11.70;99.90;;;;;;5039240;28;20031;-84
2023/04/22 04:15:29;;;;;;;15.55;6.38;;;11.70;99.90;;;;;;5054854;28;20469;-85
2023/04/22 04:17:55;;;;;;;18.60;5.65;;;11.70;99.90;;;;;;5049021;28;20047;-85
2023/04/22 04:20:21;;;;;;;9.85;5.60;;;11.70;99.90;;;;;;5053734;28;20548;-83
2023/04/22 04:22:46;;;;;;;25.48;5.45;;;11.70;99.90;;;;;;5043322;28;20056;-84
2023/04/22 04:25:12;;;;;;;19.42;5.65;;;11.70;99.90;;;;;;5045919;28;20040;-84
2023/04/22 04:27:40;;;;;;;20.38;5.78;;;11.70;99.90;;;;;;5046568;28;20514;-85
2023/04/22 04:30:06;;;;;;;11.45;4.97;;;11.70;99.90;;;;;;5049149;28;20033;-84
2023/04/22 04:32:35;;;;;;;17.10;5.63;;;11.80;99.90;;;;;;5045832;28;20083;-85
2023/04/22 04:35:01;;;;;;;18.27;6.13;;;11.80;99.90;;;;;;5042340;28;20040;-84
2023/04/22 04:37:26;;;;;;;15.25;6.00;;;11.80;99.90;;;;;;5046504;28;20107;-84
2023/04/22 04:39:53;;;;;;;23.60;5.40;;;11.70;99.90;;;;;;5046458;28;20040;-84
2023/04/22 04:42:23;;;;;;;16.42;5.85;;;11.70;99.90;;;;;;5042845;28;20029;-85
2023/04/22 04:44:50;;;;;;;21.10;5.57;;;11.70;99.90;;;;;;5049064;28;20551;-85
2023/04/22 04:47:17;;;;;;;15.00;6.38;;;11.80;99.90;;;;;;5058493;28;20448;-85
2023/04/22 04:49:44;;;;;;;19.35;5.55;;;11.90;99.90;;;;;;5051710;28;20037;-91
2023/04/22 04:52:10;;;;;;;15.57;5.63;;;12.00;99.90;;;;;;5053189;28;20569;-83
2023/04/22 04:54:36;;;;;;;16.25;6.63;;;11.90;99.90;;;;;;5054925;28;20028;-82
2023/04/22 04:57:02;;;;;;;11.07;5.57;;;11.90;99.90;;;;;;5047364;28;20077;-84
2023/04/22 04:59:28;;;;;;;21.55;5.80;;;12.00;99.90;;;;;;5052639;28;20055;-83
2023/04/22 05:01:53;;;;;;;14.55;5.90;;;12.00;99.90;;;;;;5061453;28;20347;-83
2023/04/22 05:04:20;;;;;;;20.08;5.88;;;12.10;99.90;;;;;;5059515;28;20029;-84
2023/04/22 05:06:46;;;;;;;14.27;4.93;;;12.20;99.90;;;;;;5054425;28;20051;-87
2023/04/22 05:09:11;;;;;;;13.82;4.80;;;12.20;99.90;;;;;;5054513;28;20040;-86
2023/04/22 05:11:37;;;;;;;12.57;4.65;;;12.30;99.90;;;;;;5050964;28;20456;-83
2023/04/22 05:14:04;;;;;;;12.38;5.32;;;12.30;99.90;;;;;;5050181;28;20381;-84
2023/04/22 05:16:30;;;;;;;15.30;5.10;;;12.40;99.90;;;;;;5051524;28;20404;-85
2023/04/22 05:18:56;;;;;;;18.25;4.30;;;12.40;99.90;;;;;;5061906;28;20043;-86
2023/04/22 05:21:21;;;;;;;18.42;5.50;;;12.50;99.90;;;;;;5056693;28;20091;-83
2023/04/22 05:23:47;;;;;;;9.40;4.65;;;12.50;99.90;;;;;;5055647;28;20054;-83
2023/04/22 05:26:13;;;;;;;10.52;4.70;;;12.70;99.90;;;;;;5049053;28;20436;-86
2023/04/22 05:28:41;;;;;;;22.02;4.95;;;12.70;99.90;;;;;;5046409;28;20036;-91
2023/04/22 05:31:07;;;;;;;13.52;5.03;;;12.80;99.90;;;;;;5053829;28;20389;-83
2023/04/22 05:33:33;;;;;;;14.50;4.88;;;12.80;99.90;;;;;;5040053;28;20171;-82
2023/04/22 05:35:58;;;;;;;6.85;4.07;;;12.90;99.90;;;;;;5041432;28;20418;-84
2023/04/22 05:38:24;;;;;;;13.60;4.35;;;13.00;99.90;;;;;;5052507;28;20033;-91
2023/04/22 05:40:50;;;;;;;10.23;4.50;;;13.00;99.90;;;;;;5047434;28;20048;-84
2023/04/22 05:43:16;;;;;;;14.85;5.40;;;13.10;99.90;;;;;;5049710;28;20033;-85
2023/04/22 05:45:42;;;;;;;12.30;4.63;;;13.20;99.90;;;;;;5048551;28;20409;-87
2023/04/22 05:48:08;;;;;;;11.80;5.05;;;13.20;99.90;;;;;;5049672;28;20032;-90
2023/04/22 05:50:34;;;;;;;14.00;4.50;;;13.20;99.90;;;;;;5050584;28;20397;-83
2023/04/22 05:52:59;;;;;;;17.33;4.78;;;13.20;99.90;;;;;;5047465;28;20016;-82
2023/04/22 05:55:25;;;;;;;12.93;4.00;;;13.30;99.90;;;;;;5047957;28;20035;-88
2023/04/22 05:57:51;;;;;;;22.02;5.88;;;13.40;99.90;;;;;;5045721;28;20374;-83
2023/04/22 06:00:17;;;;;;;11.07;4.43;;;13.40;99.90;;;;;;5046797;28;20041;-85
2023/04/22 06:02:42;;;;;;;17.25;4.60;;;13.50;99.90;;;;;;5040603;28;20180;-86
2023/04/22 06:05:08;;;;;;;9.93;4.57;;;13.50;99.90;;;;;;5047894;28;20021;-83
2023/04/22 06:07:34;;;;;;;18.13;4.80;;;13.60;99.90;;;;;;5046962;28;20473;-84
2023/04/22 06:10:00;;;;;;;20.60;5.18;;;13.60;99.90;;;;;;5047981;28;20420;-85
2023/04/22 06:12:25;;;;;;;11.60;4.40;;;13.70;99.90;;;;;;5036906;28;20136;-84
2023/04/22 06:14:51;;;;;;;13.48;4.97;;;13.80;99.90;;;;;;5044479;28;20025;-85
2023/04/22 06:17:16;;;;;;;14.45;4.45;;;13.80;99.90;;;;;;5045985;28;20033;-80
2023/04/22 06:19:42;;;;;;;13.50;4.80;;;13.90;99.90;;;;;;5047235;28;20056;-82
2023/04/22 06:22:07;;;;;;;18.80;5.40;;;14.00;99.90;;;;;;5041657;28;20033;-83
2023/04/22 06:24:33;;;;;;;11.85;4.53;;;14.00;99.90;;;;;;5048736;28;20128;-85
2023/04/22 06:26:59;;;;;;;17.48;4.47;;;14.00;99.90;;;;;;5050255;28;21146;-83
2023/04/22 06:29:24;;;;;;;17.00;4.35;;;14.10;99.90;;;;;;5048599;28;20025;-85
2023/04/22 06:31:50;;;;;;;12.88;4.18;;;14.20;99.90;;;;;;5047618;28;20032;-83
2023/04/22 06:34:15;;;;;;;12.55;4.18;;;14.20;99.90;;;;;;5046965;28;20013;-84
2023/04/22 06:36:42;;;;;;;15.55;4.00;;;14.30;99.90;;;;;;5051508;28;20047;-86
2023/04/22 06:39:09;;;;;;;18.83;4.47;;;14.30;99.90;;;;;;5047689;28;20032;-80
2023/04/22 06:41:35;;;;;;;12.30;5.47;;;14.30;99.90;;;;;;5049814;28;20167;-83
2023/04/22 06:44:01;;;;;;;16.98;4.50;;;14.30;99.90;;;;;;5051204;28;20115;-85
2023/04/22 06:46:26;;;;;;;18.00;4.60;;;14.40;99.90;;;;;;5047026;28;20035;-84
2023/04/22 06:48:52;;;;;;;9.27;3.65;;;14.40;99.90;;;;;;5042814;28;20389;-83
2023/04/22 06:51:17;;;;;;;18.70;4.35;;;14.50;99.90;;;;;;5046692;28;20017;-81
2023/04/22 06:53:46;;;;;;;9.60;4.18;;;14.50;99.90;;;;;;5038876;28;20036;-91
2023/04/22 06:56:11;;;;;;;16.08;4.65;;;14.70;99.90;;;;;;5036877;28;20044;-83
2023/04/22 06:58:37;;;;;;;11.68;4.75;;;14.80;99.90;;;;;;5035517;28;20378;-84
2023/04/22 07:01:02;;;;;;;17.70;4.20;;;14.90;99.90;;;;;;5042388;28;20037;-84
2023/04/22 07:03:28;;;;;;;15.48;4.15;;;15.00;99.90;;;;;;5043002;28;20029;-86
2023/04/22 07:05:54;;;;;;;18.17;4.68;;;15.10;99.90;;;;;;5036356;28;20485;-83
2023/04/22 07:08:19;;;;;;;8.00;4.35;;;15.10;99.90;;;;;;5044024;28;20025;-84
2023/04/22 07:10:45;;;;;;;15.90;4.38;;;15.10;99.90;;;;;;5046242;28;20021;-87
2023/04/22 07:13:10;;;;;;;10.43;4.90;;;15.20;99.90;;;;;;5041611;28;20036;-84
2023/04/22 07:15:36;;;;;;;12.07;3.90;;;15.20;99.90;;;;;;5043398;28;20532;-87
2023/04/22 07:18:01;;;;;;;9.52;3.53;;;15.30;99.90;;;;;;5052783;28;20021;-84
2023/04/22 07:20:27;;;;;;;8.63;3.88;;;15.30;99.90;;;;;;5048001;28;20037;-86
2023/04/22 07:22:53;;;;;;;14.93;4.88;;;15.40;99.90;;;;;;5039896;28;20036;-86
2023/04/22 07:25:29;;;;;;;8.38;4.00;;;15.40;99.90;;;;;;5045546;28;20040;-89
2023/04/22 07:27:55;;;;;;;16.40;3.92;;;15.40;99.90;;;;;;5044933;28;20033;-83
2023/04/22 07:30:20;;;;;;;12.27;4.22;;;15.50;99.90;;;;;;5048603;28;20028;-86
2023/04/22 07:32:46;;;;;;;10.40;4.03;;;15.50;99.90;;;;;;5047043;28;20029;-84
2023/04/22 07:35:11;;;;;;;11.90;4.07;;;15.60;99.90;;;;;;5062389;28;20079;-84
2023/04/22 07:37:37;;;;;;;10.10;3.72;;;15.50;99.90;;;;;;5040073;28;20055;-86
2023/04/22 07:40:03;;;;;;;18.85;4.18;;;15.60;99.90;;;;;;5044180;28;20032;-84
2023/04/22 07:42:28;;;;;;;10.10;5.03;;;15.70;99.90;;;;;;5042962;28;20021;-85
2023/04/22 07:44:54;;;;;;;12.13;4.25;;;15.70;99.90;;;;;;5038347;28;20052;-81
2023/04/22 07:47:19;;;;;;;9.10;3.88;;;15.80;99.90;;;;;;5034716;28;20670;-86
2023/04/22 07:49:45;;;;;;;10.50;4.18;;;15.90;99.90;;;;;;5042356;28;20601;-84
2023/04/22 07:52:10;;;;;;;12.52;4.40;;;16.00;99.90;;;;;;5048046;28;20021;-85
2023/04/22 07:54:36;;;;;;;10.80;3.58;;;16.10;99.90;;;;;;5040872;28;20021;-82
2023/04/22 07:57:02;;;;;;;15.15;4.10;;;16.20;99.90;;;;;;5043706;28;20017;-84
2023/04/22 07:59:27;;;;;;;12.43;3.58;;;16.30;99.90;;;;;;5050840;28;20105;-81
2023/04/22 08:01:53;;;;;;;10.65;4.18;;;16.30;99.90;;;;;;5049029;28;20040;-84
2023/04/22 08:04:21;;;;;;;9.27;3.88;;;16.50;99.90;;;;;;5045273;28;20025;-91
2023/04/22 08:06:47;;;;;;;12.85;3.67;;;16.70;99.90;;;;;;5046325;28;20064;-86
2023/04/22 08:09:13;;;;;;;9.00;3.97;;;16.70;99.90;;;;;;5044142;28;20448;-84
2023/04/22 08:11:38;;;;;;;7.95;3.45;;;16.80;99.90;;;;;;5041799;28;20013;-84
2023/04/22 08:14:04;;;;;;;9.70;3.58;;;16.80;99.90;;;;;;5057629;28;20027;-84
2023/04/22 08:16:29;;;;;;;9.13;3.55;;;16.90;99.90;;;;;;5047093;28;20028;-82
2023/04/22 08:18:56;;;;;;;12.38;3.42;;;17.00;99.90;;;;;;5044297;28;20147;-84
2023/04/22 08:21:22;;;;;;;14.75;4.35;;;17.10;99.90;;;;;;5044113;28;20048;-85
2023/04/22 08:23:49;;;;;;;12.23;3.85;;;17.20;99.90;;;;;;5043207;28;20408;-90
2023/04/22 08:26:15;;;;;;;6.85;3.08;;;17.30;99.90;;;;;;5035562;28;20075;-84
2023/04/22 08:28:42;;;;;;;8.98;3.50;;;17.30;99.90;;;;;;5040228;28;20028;-87
2023/04/22 08:31:09;;;;;;;10.90;3.92;;;17.30;99.90;;;;;;5039662;28;20070;-82
2023/04/22 08:33:35;;;;;;;6.28;3.47;;;17.40;99.90;;;;;;5035193;28;20009;-84
2023/04/22 08:36:02;;;;;;;8.63;3.33;;;17.40;99.90;;;;;;5038579;28;20147;-82
2023/04/22 08:38:28;;;;;;;9.32;3.67;;;17.40;99.90;;;;;;5047457;28;20055;-86
2023/04/22 08:40:56;;;;;;;7.20;2.90;;;17.50;99.90;;;;;;5038974;28;20056;-88
2023/04/22 08:43:24;;;;;;;6.40;3.05;;;17.60;99.90;;;;;;5040995;28;20025;-86
2023/04/22 08:45:50;;;;;;;12.15;3.17;;;17.60;99.90;;;;;;5045872;28;20067;-82
2023/04/22 08:48:17;;;;;;;10.23;2.90;;;17.50;99.90;;;;;;5039679;28;20029;-83
2023/04/22 08:50:45;;;;;;;5.93;2.75;;;17.60;99.90;;;;;;5044147;28;20102;-84
2023/04/22 08:53:13;;;;;;;6.10;3.08;;;17.60;99.90;;;;;;5039718;28;20119;-85
2023/04/22 08:55:42;;;;;;;6.70;2.67;;;17.60;99.90;;;;;;5028680;28;20022;-88
2023/04/22 08:58:09;;;;;;;11.27;3.15;;;17.70;99.70;;;;;;5043372;28;20048;-83
2023/04/22 09:00:35;;;;;;;5.03;2.38;;;17.70;99.90;;;;;;5037700;28;20033;-84
2023/04/22 09:03:07;;;;;;;10.50;2.88;;;17.70;99.90;;;;;;5041947;28;20088;-90
2023/04/22 09:05:35;;;;;;;7.72;3.20;;;17.80;99.90;;;;;;5039559;28;20480;-82
2023/04/22 09:08:02;;;;;;;7.93;3.08;;;17.90;99.90;;;;;;5042464;28;20070;-87
2023/04/22 09:10:29;;;;;;;7.63;2.97;;;18.00;99.90;;;;;;5041021;28;20458;-85
2023/04/22 09:12:57;;;;;;;4.22;2.70;;;18.10;99.90;;;;;;5038215;28;20024;-84
2023/04/22 09:15:23;;;;;;;9.10;3.20;;;18.10;99.90;;;;;;5036599;28;20017;-85
2023/04/22 09:17:51;;;;;;;7.20;2.97;;;18.30;99.80;;;;;;5034275;28;20056;-83
2023/04/22 09:20:18;;;;;;;9.48;2.78;;;18.30;97.50;;;;;;5038044;28;20497;-91
2023/04/22 09:22:48;;;;;;;10.35;3.25;;;18.40;96.00;;;;;;5044691;28;20025;-82
2023/04/22 09:26:00;;;;;;;5.95;2.75;;;18.40;96.80;;;;;;5047490;28;20090;-84
2023/04/22 09:28:25;;;;;;;4.25;2.30;;;18.40;97.00;;;;;;5029427;28;20461;-84
2023/04/22 09:30:51;;;;;;;4.47;2.58;;;18.50;96.30;;;;;;5050240;28;20040;-84
2023/04/22 09:33:17;;;;;;;7.78;3.13;;;18.60;99.90;;;;;;5050239;28;20056;-88
2023/04/22 09:35:42;;;;;;;9.05;2.70;;;18.60;99.90;;;;;;5046450;28;20020;-86
2023/04/22 09:38:11;;;;;;;10.02;2.95;;;18.70;96.60;;;;;;5045064;28;20427;-84
2023/04/22 09:40:42;;;;;;;5.30;3.25;;;18.80;99.90;;;;;;5048966;28;20064;-85
2023/04/22 09:43:08;;;;;;;8.77;3.10;;;18.90;98.70;;;;;;5047683;28;20103;-85
2023/04/22 09:45:41;;;;;;;9.18;2.92;;;19.00;98.90;;;;;;5047159;28;20024;-84
2023/04/22 09:48:09;;;;;;;4.78;2.75;;;19.10;99.20;;;;;;5051330;28;20017;-81
2023/04/22 09:50:36;;;;;;;14.40;2.58;;;19.20;91.20;;;;;;5045232;28;20021;-84
2023/04/22 09:53:04;;;;;;;8.85;3.22;;;19.20;94.40;;;;;;5040289;28;20108;-85
2023/04/22 09:55:33;;;;;;;5.97;2.70;;;19.20;99.90;;;;;;5042620;28;20070;-86
2023/04/22 09:58:14;;;;;;;6.47;3.50;;;19.20;99.90;;;;;;5040858;28;20052;-91
2023/04/22 10:00:51;;;;;;;9.02;3.50;;;19.30;99.90;;;;;;5044466;28;20036;-85
2023/04/22 10:03:17;;;;;;;4.53;2.28;;;19.40;99.50;;;;;;5043946;28;20039;-87
2023/04/22 10:05:44;;;;;;;8.98;3.10;;;19.50;97.60;;;;;;5038561;28;20040;-84
2023/04/22 10:08:11;;;;;;;11.70;2.67;;;19.50;99.10;;;;;;5045034;28;20111;-85
2023/04/22 10:10:39;;;;;;;7.05;2.88;;;19.50;97.70;;;;;;5040512;28;20401;-85
2023/04/22 10:13:06;;;;;;;4.55;2.65;;;19.50;96.90;;;;;;5039720;28;20062;-84
2023/04/22 10:15:37;;;;;;;3.78;2.80;;;19.60;99.90;;;;;;5038480;28;20029;-85
2023/04/22 10:18:05;;;;;;;11.38;2.92;;;19.60;97.50;;;;;;5034415;28;20029;-84
2023/04/22 10:20:33;;;;;;;4.72;2.80;;;19.60;94.70;;;;;;5047049;28;20131;-84
2023/04/22 10:23:02;;;;;;;5.32;2.88;;;19.60;99.90;;;;;;5046306;28;20374;-84
2023/04/22 10:25:31;;;;;;;8.95;3.45;;;19.60;97.80;;;;;;5035991;28;20025;-86
2023/04/22 10:28:06;;;;;;;8.88;3.00;;;19.70;96.50;;;;;;5038842;28;20039;-86
2023/04/22 10:30:35;;;;;;;4.47;2.58;;;19.70;90.70;;;;;;5046985;28;20028;-84
2023/04/22 10:33:20;;;;;;;4.95;2.35;;;19.80;90.90;;;;;;5050702;28;20029;-83
2023/04/22 10:36:10;;;;;;;7.70;2.72;;;19.80;90.60;;;;;;5051958;28;20784;-86
2023/04/22 10:38:40;;;;;;;4.97;2.65;;;19.80;92.70;;;;;;5049838;28;20049;-85
2023/04/22 10:41:12;;;;;;;4.28;2.50;;;19.80;93.80;;;;;;5045344;28;20040;-83
2023/04/22 10:43:54;;;;;;;6.65;2.35;;;19.80;93.40;;;;;;5042139;28;20029;-86
2023/04/22 10:46:33;;;;;;;6.10;2.40;;;19.90;92.00;;;;;;5047321;28;20052;-85
2023/04/22 10:49:21;;;;;;;6.68;3.13;;;20.00;87.70;;;;;;5047511;28;20062;-84
2023/04/22 10:51:48;;;;;;;8.05;3.22;;;20.00;94.90;;;;;;5056069;28;20510;-83
2023/04/22 10:54:35;;;;;;;8.65;2.95;;;20.00;91.50;;;;;;5046357;28;20024;-84
2023/04/22 10:57:21;;;;;;;6.53;2.85;;;20.10;96.80;;;;;;5047475;28;20024;-87
2023/04/22 10:59:54;;;;;;;11.82;2.40;;;20.30;91.50;;;;;;5044887;28;20032;-85
2023/04/22 11:02:23;;;;;;;4.28;2.38;;;20.40;89.90;;;;;;5053927;28;20023;-84
2023/04/22 11:04:52;;;;;;;3.47;2.40;;;20.40;81.70;;;;;;5041949;28;20022;-85
2023/04/22 11:07:19;;;;;;;4.40;2.45;;;20.40;84.50;;;;;;5042627;28;20017;-85
2023/04/22 11:09:49;;;;;;;3.72;2.08;;;20.40;88.50;;;;;;5047757;28;20492;-85
2023/04/22 11:12:34;;;;;;;9.10;2.30;;;20.50;81.70;;;;;;5053450;28;20029;-83
2023/04/22 11:15:21;;;;;;;7.18;2.58;;;20.40;79.10;;;;;;5043646;28;20016;-84
2023/04/22 11:17:50;;;;;;;6.85;2.35;;;20.40;83.00;;;;;;5040564;28;20466;-84
2023/04/22 11:20:17;;;;;;;7.85;2.78;;;20.40;92.70;;;;;;5052297;28;20033;-86
2023/04/22 11:22:54;;;;;;;3.28;2.28;;;20.50;90.60;;;;;;5047384;28;20025;-85
2023/04/22 11:25:21;;;;;;;4.93;2.53;;;20.50;87.20;;;;;;5050164;28;20339;-82
2023/04/22 11:27:53;;;;;;;13.93;2.83;;;20.60;85.60;;;;;;5049699;28;20115;-88
2023/04/22 11:30:23;;;;;;;9.52;2.92;;;20.60;85.70;;;;;;5056307;28;20031;-85
2023/04/22 11:32:55;;;;;;;9.73;3.65;;;20.60;89.20;;;;;;5053593;28;20025;-87
2023/04/22 11:35:26;;;;;;;6.97;3.05;;;20.60;90.40;;;;;;5050927;28;20133;-83
2023/04/22 11:38:14;;;;;;;4.32;2.55;;;20.70;85.40;;;;;;5055949;28;20503;-82
2023/04/22 11:40:44;;;;;;;9.15;2.70;;;20.70;81.80;;;;;;5043998;28;20044;-83
2023/04/22 11:43:10;;;;;;;6.45;2.58;;;20.70;84.80;;;;;;5043688;28;20020;-82
2023/04/22 11:45:37;;;;;;;4.80;2.75;;;20.70;80.00;;;;;;5049376;28;20440;-83
2023/04/22 11:48:05;;;;;;;7.25;2.17;;;20.70;81.90;;;;;;5048583;28;20060;-83
2023/04/22 11:50:36;;;;;;;7.63;2.67;;;20.70;79.80;;;;;;5040721;28;20729;-81
2023/04/22 11:53:12;;;;;;;5.40;2.80;;;20.60;79.10;;;;;;5051007;28;20020;-82
2023/04/22 11:55:39;;;;;;;8.88;2.78;;;20.60;71.30;;;;;;5054437;28;20033;-86
2023/04/22 11:58:14;;;;;;;3.45;2.30;;;20.60;73.60;;;;;;5053819;28;20020;-81
2023/04/22 12:00:44;;;;;;;6.63;2.80;;;20.60;76.60;;;;;;5031963;28;20168;-87
2023/04/22 12:03:25;;;;;;;8.13;2.42;;;20.60;78.00;;;;;;5039534;28;20028;-83
2023/04/22 12:05:56;;;;;;;6.72;2.38;;;20.70;70.50;;;;;;5045201;28;20093;-84
2023/04/22 12:08:25;;;;;;;5.05;2.28;;;20.80;69.70;;;;;;5042081;28;20028;-85
2023/04/22 12:10:56;;;;;;;10.98;2.90;;;20.90;74.50;;;;;;5044676;28;20461;-87
2023/04/22 12:13:41;;;;;;;6.07;2.15;;;21.00;74.60;;;;;;5045176;28;20453;-83
2023/04/22 12:16:14;;;;;;;;;;;21.00;71.70;;;;;;5050230;28;20021;-83
2023/04/22 12:18:54;;;;;;;9.18;2.60;;;21.00;63.80;;;;;;5049064;28;20002;-84
2023/04/22 12:21:24;;;;;;;3.95;2.30;;;20.90;70.30;;;;;;5051425;28;20037;-85
2023/04/22 12:23:52;;;;;;;3.08;2.25;;;20.90;68.40;;;;;;5052684;28;20524;-83
2023/04/22 12:26:23;;;;;;;5.60;2.08;;;20.90;69.00;;;;;;5054642;28;20025;-85
2023/04/22 12:28:49;;;;;;;4.95;2.47;;;20.90;64.70;;;;;;5049227;28;20056;-85
2023/04/22 12:31:15;;;;;;;2.75;2.20;;;20.90;67.00;;;;;;5040409;28;20350;-85
2023/04/22 12:33:43;;;;;;;5.32;2.45;;;20.90;64.90;;;;;;5047577;28;20028;-84
2023/04/22 12:36:09;;;;;;;8.77;2.13;;;21.00;63.70;;;;;;5045757;28;20055;-88
2023/04/22 12:38:35;;;;;;;5.57;2.30;;;21.00;65.00;;;;;;5042670;28;20499;-86
2023/04/22 12:41:02;;;;;;;8.40;2.42;;;21.10;69.40;;;;;;5032420;28;20378;-85
2023/04/22 12:43:28;;;;;;;4.60;1.88;;;21.20;65.40;;;;;;5045867;28;20025;-87